CYKP

Ogoki Post

Ogoki Post, Ontario, Canada
METAR CYKP 260400Z AUTO 09007G18KT 050V120 9SM OVC075 08/02 A2985 RMK SLP108
Observed Flight Rules
May-26 @ 04:00 UTC (25 minutes ago) Visual Flight Rules
Wind Visibility Clouds
90° at 7 knots
 Gusting to 18 knots
9 miles
  • Overcast at 7,500' AGL
Temperatures Readings
Current 8°C / 46°F
Dewpoint 2°C / 36°F
Humidity 66%
Altimeter 29.85" Hg
Pressure 1010.8 hPa
Elevation 179
METAR CYKP 260400Z AUTO 09007G18KT 050V120 9SM OVC075 08/02 A2985 RMK SLP108
Observed Flight Rules
May-26 @ 04:00 UTC
(25 minutes ago)
VFR
Wind Visibility
90° at 7 knots
 Gusting to 18 knots
9 miles
Clouds
  • Overcast at 7,500' AGL
Temperature Dewpoint
8°C / 46°F 2°C / 36°F
Humidity Altimeter Pressure
66% 29.85" Hg 1010.8 hPa